createdAt,value
2019-02-11T00:01:49.657Z,1.27
2019-02-11T00:04:18.417Z,1.17
2019-02-11T00:06:47.173Z,1.73
2019-02-11T00:09:15.926Z,1.83
2019-02-11T00:11:44.681Z,1.50
2019-02-11T00:14:13.417Z,1.40
2019-02-11T00:16:42.275Z,2.02
2019-02-11T00:19:12.396Z,2.73
2019-02-11T00:21:41.193Z,1.60
2019-02-11T00:24:09.963Z,2.30
2019-02-11T00:26:40.374Z,2.30
2019-02-11T00:29:09.122Z,1.60
2019-02-11T00:31:37.889Z,2.60
2019-02-11T00:34:06.636Z,1.30
2019-02-11T00:36:35.382Z,1.37
2019-02-11T00:39:06.023Z,2.10
2019-02-11T00:41:34.781Z,1.40
2019-02-11T00:44:03.528Z,1.60
2019-02-11T00:46:32.318Z,2.03
2019-02-11T00:49:01.174Z,2.60
2019-02-11T00:51:31.296Z,1.87
2019-02-11T00:54:00.274Z,1.60
2019-02-11T00:56:29.033Z,1.33
2019-02-11T00:58:57.772Z,2.40
2019-02-11T01:01:26.530Z,1.47
2019-02-11T01:03:55.366Z,1.15
2019-02-11T01:06:24.117Z,1.40
2019-02-11T01:08:52.870Z,2.30
2019-02-11T01:11:21.617Z,1.47
2019-02-11T01:13:51.671Z,1.47
2019-02-11T01:16:21.414Z,2.97
2019-02-11T01:18:50.156Z,1.80
2019-02-11T01:21:18.901Z,2.33
2019-02-11T01:23:47.665Z,1.53
2019-02-11T01:26:16.416Z,1.63
2019-02-11T01:28:45.180Z,1.70
2019-02-11T01:31:13.924Z,2.07
2019-02-11T01:33:42.685Z,2.83
2019-02-11T01:36:11.424Z,1.60
2019-02-11T01:38:40.516Z,1.40
2019-02-11T01:41:09.279Z,1.95
2019-02-11T01:43:38.037Z,1.97
2019-02-11T01:46:06.790Z,1.73
2019-02-11T01:48:35.537Z,1.40
2019-02-11T01:51:04.468Z,1.27
2019-02-11T01:53:33.244Z,3.07
2019-02-11T01:56:02.025Z,1.47
2019-02-11T01:58:30.808Z,1.43
2019-02-11T02:00:59.703Z,1.20
2019-02-11T02:03:28.465Z,1.87
2019-02-11T02:05:57.372Z,2.63
2019-02-11T02:08:26.193Z,1.53
2019-02-11T02:10:54.955Z,1.40
2019-02-11T02:13:23.731Z,1.72
2019-02-11T02:15:52.535Z,1.77
2019-02-11T02:18:21.349Z,1.50
2019-02-11T02:20:50.115Z,1.33
2019-02-11T02:23:18.840Z,2.08
2019-02-11T02:25:47.588Z,2.67
2019-02-11T02:28:17.268Z,1.67
2019-02-11T02:30:46.015Z,1.67
2019-02-11T02:33:14.744Z,1.23
2019-02-11T02:35:43.498Z,1.60
2019-02-11T02:38:12.248Z,2.10
2019-02-11T02:40:41.358Z,1.57
2019-02-11T02:43:10.107Z,2.37
2019-02-11T02:45:38.865Z,1.40
2019-02-11T02:48:07.614Z,1.57
2019-02-11T02:50:36.358Z,1.57
2019-02-11T02:53:05.155Z,1.70
2019-02-11T02:55:33.915Z,1.33
2019-02-11T02:58:02.683Z,1.53
2019-02-11T03:00:31.517Z,1.40
2019-02-11T03:03:00.270Z,1.70
2019-02-11T03:05:29.016Z,1.93
2019-02-11T03:07:57.767Z,1.43
2019-02-11T03:10:26.531Z,1.67
2019-02-11T03:12:55.269Z,2.17
2019-02-11T03:15:24.018Z,1.60
2019-02-11T03:17:52.780Z,1.90
2019-02-11T03:20:21.553Z,1.70
2019-02-11T03:22:50.310Z,2.77
2019-02-11T03:25:19.090Z,1.50
2019-02-11T03:27:47.901Z,1.40
2019-02-11T03:30:16.657Z,1.10
2019-02-11T03:32:45.409Z,1.83
2019-02-11T03:35:14.228Z,1.37
2019-02-11T03:37:43.040Z,0.70
2019-02-11T03:40:12.034Z,1.07
2019-02-11T03:42:40.792Z,0.80
2019-02-11T03:45:10.284Z,0.67
2019-02-11T03:47:39.029Z,1.37
2019-02-11T03:50:08.376Z,0.70
2019-02-11T03:52:37.135Z,1.05
2019-02-11T03:55:06.263Z,1.23
2019-02-11T03:57:35.102Z,1.02
2019-02-11T04:00:04.705Z,0.87
2019-02-11T04:02:34.207Z,0.40
2019-02-11T04:05:02.947Z,1.60
2019-02-11T04:07:31.724Z,1.27
2019-02-11T04:10:00.503Z,0.37
2019-02-11T04:12:29.308Z,1.65
2019-02-11T04:14:58.078Z,2.33
2019-02-11T04:17:26.827Z,0.80
2019-02-11T04:19:55.560Z,0.97
2019-02-11T04:22:24.342Z,0.53
2019-02-11T04:24:53.070Z,1.83
2019-02-11T04:27:21.829Z,0.73
2019-02-11T04:29:50.577Z,1.60
2019-02-11T04:32:19.317Z,0.97
2019-02-11T04:34:48.078Z,1.73
2019-02-11T04:37:16.850Z,1.10
2019-02-11T04:39:45.598Z,1.73
2019-02-11T04:42:14.368Z,1.52
2019-02-11T04:44:43.125Z,1.63
2019-02-11T04:47:11.888Z,1.42
2019-02-11T04:49:40.625Z,0.70
2019-02-11T04:52:10.474Z,1.13
2019-02-11T04:54:39.232Z,1.10
2019-02-11T04:57:07.995Z,3.77
2019-02-11T04:59:36.730Z,1.63
2019-02-11T05:02:05.486Z,1.83
2019-02-11T05:04:34.257Z,1.80
2019-02-11T05:07:03.006Z,1.60
2019-02-11T05:09:31.742Z,7.35
2019-02-11T05:12:00.489Z,2.60
2019-02-11T05:14:30.262Z,2.62
2019-02-11T05:16:59.028Z,1.90
2019-02-11T05:19:27.814Z,1.50
2019-02-11T05:21:56.581Z,3.10
2019-02-11T05:24:25.317Z,3.17
2019-02-11T05:26:54.088Z,2.67
2019-02-11T05:29:22.839Z,2.77
2019-02-11T05:31:51.586Z,3.53
2019-02-11T05:34:20.387Z,2.87
2019-02-11T05:36:50.214Z,4.90
2019-02-11T05:39:18.996Z,4.67
2019-02-11T05:41:47.748Z,26.13
2019-02-11T05:44:16.527Z,7.53
2019-02-11T05:46:45.286Z,3.87
2019-02-11T05:49:14.051Z,4.75
2019-02-11T05:51:42.813Z,5.97
2019-02-11T05:54:11.659Z,5.63
2019-02-11T05:56:40.398Z,5.97
2019-02-11T05:59:09.167Z,4.40
2019-02-11T06:01:37.908Z,7.43
2019-02-11T06:04:07.313Z,8.80
2019-02-11T06:06:36.084Z,3.73
2019-02-11T06:09:06.101Z,5.70
2019-02-11T06:11:34.838Z,4.53
2019-02-11T06:14:03.596Z,5.30
2019-02-11T06:16:32.341Z,6.17
2019-02-11T06:19:01.108Z,3.73
2019-02-11T06:21:29.846Z,6.10
2019-02-11T06:23:58.607Z,4.63
2019-02-11T06:26:28.168Z,5.20
2019-02-11T06:28:56.934Z,6.33
2019-02-11T06:31:25.690Z,6.50
2019-02-11T06:33:54.436Z,4.43
2019-02-11T06:36:23.174Z,4.47
2019-02-11T06:38:52.006Z,3.77
2019-02-11T06:41:20.752Z,4.77
2019-02-11T06:43:49.515Z,7.33
2019-02-11T06:46:18.280Z,10.40
2019-02-11T06:48:47.020Z,5.13
2019-02-11T06:51:15.773Z,6.80
2019-02-11T06:53:44.542Z,5.87
2019-02-11T06:56:13.303Z,5.20
2019-02-11T06:58:42.049Z,2.73
2019-02-11T07:01:10.785Z,5.45
2019-02-11T07:03:39.542Z,5.20
2019-02-11T07:06:08.285Z,7.20
2019-02-11T07:08:37.040Z,6.13
2019-02-11T07:11:05.787Z,7.23
2019-02-11T07:13:34.534Z,7.63
2019-02-11T07:16:03.292Z,6.75
2019-02-11T07:18:32.117Z,4.50
2019-02-11T07:21:01.543Z,4.40
2019-02-11T07:23:30.417Z,7.00
2019-02-11T07:25:59.161Z,5.00
2019-02-11T07:28:28.029Z,4.47
2019-02-11T07:30:56.789Z,8.60
2019-02-11T07:33:25.525Z,4.30
2019-02-11T07:35:54.506Z,3.75
2019-02-11T07:38:24.367Z,4.67
2019-02-11T07:40:53.377Z,8.83
2019-02-11T07:43:26.531Z,9.10
2019-02-11T07:46:06.156Z,4.63
2019-02-11T07:48:35.012Z,5.40
2019-02-11T07:51:03.833Z,3.93
2019-02-11T07:53:32.623Z,7.83
2019-02-11T07:56:01.354Z,2.93
2019-02-11T07:58:30.118Z,8.30
2019-02-11T08:00:58.885Z,7.53
2019-02-11T08:03:27.648Z,4.03
2019-02-11T08:05:56.414Z,4.25
2019-02-11T08:08:25.160Z,4.03
2019-02-11T08:10:54.372Z,6.80
2019-02-11T08:13:24.212Z,10.87
2019-02-11T08:15:54.419Z,4.15
2019-02-11T08:18:23.168Z,4.10
2019-02-11T08:20:51.916Z,4.50
2019-02-11T08:23:20.661Z,5.67
2019-02-11T08:25:49.424Z,5.33
2019-02-11T08:28:19.687Z,5.45
2019-02-11T08:30:48.784Z,7.87
2019-02-11T08:33:17.618Z,6.53
2019-02-11T08:35:46.381Z,4.40
2019-02-11T08:38:15.148Z,5.40
2019-02-11T08:40:43.950Z,5.90
2019-02-11T08:43:12.876Z,6.40
2019-02-11T08:45:46.809Z,9.63
2019-02-11T08:48:12.240Z,7.05
2019-02-11T08:50:41.481Z,8.58
2019-02-11T08:53:10.231Z,6.83
2019-02-11T08:55:39.044Z,3.10
2019-02-11T08:58:07.981Z,6.60
2019-02-11T09:00:37.174Z,4.90
2019-02-11T09:03:05.931Z,5.47
2019-02-11T09:05:36.230Z,5.58
2019-02-11T09:08:05.136Z,10.30
2019-02-11T09:10:34.022Z,3.97
2019-02-11T09:13:02.925Z,5.57
2019-02-11T09:15:31.815Z,6.00
2019-02-11T09:18:00.649Z,4.17
2019-02-11T09:20:29.402Z,5.90
2019-02-11T09:22:58.156Z,5.58
2019-02-11T09:25:30.992Z,16.90
2019-02-11T09:27:59.750Z,10.70
2019-02-11T09:30:28.503Z,8.23
2019-02-11T09:32:57.330Z,7.50
2019-02-11T09:35:26.161Z,4.70
2019-02-11T09:37:54.921Z,7.83
2019-02-11T09:40:23.666Z,4.63
2019-02-11T09:42:52.422Z,6.23
2019-02-11T09:45:21.740Z,5.58
2019-02-11T09:47:50.578Z,5.53
2019-02-11T09:50:34.610Z,7.25
2019-02-11T09:53:04.383Z,6.00
2019-02-11T09:55:33.808Z,6.63
2019-02-11T09:58:02.576Z,6.00
2019-02-11T10:00:31.476Z,6.93
2019-02-11T10:03:00.244Z,4.57
2019-02-11T10:05:28.993Z,7.10
2019-02-11T10:07:57.756Z,9.17
2019-02-11T10:10:30.051Z,5.92
2019-02-11T10:12:58.814Z,5.07
2019-02-11T10:15:27.624Z,4.40
2019-02-11T10:17:56.472Z,6.57
2019-02-11T10:20:25.304Z,4.30
2019-02-11T10:22:54.093Z,5.53
2019-02-11T10:25:24.601Z,5.83
2019-02-11T10:27:55.250Z,6.67
2019-02-11T10:30:24.009Z,4.83
2019-02-11T10:32:52.761Z,4.87
2019-02-11T10:35:21.598Z,5.53
2019-02-11T10:37:50.471Z,4.15
2019-02-11T10:40:20.400Z,2.57
2019-02-11T10:42:49.164Z,3.87
2019-02-11T10:45:17.914Z,6.63
2019-02-11T10:47:46.753Z,6.47
2019-02-11T10:50:16.097Z,6.15
2019-02-11T10:52:45.036Z,4.93
2019-02-11T10:55:15.000Z,4.73
2019-02-11T10:57:44.366Z,5.67
2019-02-11T11:00:16.120Z,4.10
2019-02-11T11:02:44.897Z,2.27
2019-02-11T11:05:14.466Z,5.28
2019-02-11T11:07:43.519Z,3.07
2019-02-11T11:10:20.460Z,4.20
2019-02-11T11:12:49.310Z,4.92
2019-02-11T11:15:18.882Z,5.43
2019-02-11T11:17:47.810Z,6.73
2019-02-11T11:20:16.961Z,3.33
2019-02-11T11:22:45.977Z,5.40
2019-02-11T11:25:16.149Z,5.23
2019-02-11T11:27:45.038Z,3.05
2019-02-11T11:30:14.497Z,4.97
2019-02-11T11:32:45.940Z,3.67
2019-02-11T11:35:15.834Z,3.63
2019-02-11T11:37:44.840Z,6.43
2019-02-11T11:40:15.465Z,6.43
2019-02-11T11:42:44.377Z,4.12
2019-02-11T11:45:15.234Z,5.20
2019-02-11T11:47:45.816Z,5.08
2019-02-11T11:50:15.648Z,2.43
2019-02-11T11:52:44.677Z,5.10
2019-02-11T11:55:14.297Z,3.07
2019-02-11T11:57:43.180Z,3.77
2019-02-11T12:00:25.991Z,6.22
2019-02-11T12:03:02.794Z,3.70
2019-02-11T12:05:26.506Z,2.00
2019-02-11T12:07:55.259Z,5.53
2019-02-11T12:10:24.252Z,4.27
2019-02-11T12:12:53.211Z,5.17
2019-02-11T12:15:23.162Z,17.10
2019-02-11T12:17:52.206Z,17.63
2019-02-11T12:20:21.045Z,33.05
2019-02-11T12:22:50.277Z,13.97
2019-02-11T12:25:21.075Z,10.05
2019-02-11T12:27:49.834Z,4.53
2019-02-11T12:30:22.697Z,3.42
2019-02-11T12:32:54.360Z,4.47
2019-02-11T12:35:22.157Z,4.43
2019-02-11T12:37:51.219Z,5.33
2019-02-11T12:40:20.380Z,7.17
2019-02-11T12:42:52.378Z,2.42
2019-02-11T12:45:21.113Z,14.93
2019-02-11T12:47:49.875Z,4.62
2019-02-11T12:50:18.800Z,9.77
2019-02-11T12:52:48.834Z,5.13
2019-02-11T12:55:17.845Z,6.10
2019-02-11T12:57:46.804Z,3.92
2019-02-11T13:00:21.598Z,3.73
2019-02-11T13:02:50.528Z,3.93
2019-02-11T13:05:22.915Z,2.87
2019-02-11T13:07:50.519Z,2.20
2019-02-11T13:10:20.596Z,2.62
2019-02-11T13:12:49.611Z,2.43
2019-02-11T13:15:53.314Z,4.07
2019-02-11T13:17:50.950Z,1.53
2019-02-11T13:20:22.285Z,3.03
2019-02-11T13:22:51.084Z,4.17
2019-02-11T13:25:20.005Z,2.63
2019-02-11T13:27:49.069Z,4.27
2019-02-11T13:30:19.368Z,3.47
2019-02-11T13:32:48.255Z,5.63
2019-02-11T13:35:17.025Z,2.40
2019-02-11T13:37:45.868Z,2.20
2019-02-11T13:40:16.531Z,3.13
2019-02-11T13:42:45.493Z,2.67
2019-02-11T13:45:16.974Z,3.40
2019-02-11T13:47:54.998Z,2.70
2019-02-11T13:50:21.763Z,2.83
2019-02-11T13:52:51.759Z,3.33
2019-02-11T13:55:23.458Z,1.60
2019-02-11T13:57:52.749Z,2.67
2019-02-11T14:00:28.481Z,3.03
2019-02-11T14:02:57.616Z,2.83
2019-02-11T14:05:27.699Z,4.90
2019-02-11T14:07:57.781Z,5.30
2019-02-11T14:10:26.700Z,7.23
2019-02-11T14:12:55.685Z,2.52
2019-02-11T14:15:24.579Z,3.57
2019-02-11T14:18:10.373Z,1.93
2019-02-11T14:20:25.354Z,3.03
2019-02-11T14:22:54.261Z,2.10
2019-02-11T14:25:40.353Z,2.63
2019-02-11T14:27:55.408Z,3.70
2019-02-11T14:30:24.318Z,3.93
2019-02-11T14:32:54.473Z,2.60
2019-02-11T14:35:23.234Z,2.37
2019-02-11T14:37:52.106Z,2.10
2019-02-11T14:40:21.119Z,4.03
2019-02-11T14:42:49.930Z,2.73
2019-02-11T14:45:18.690Z,3.77
2019-02-11T14:47:47.810Z,3.47
2019-02-11T14:50:16.682Z,3.63
2019-02-11T14:52:45.441Z,4.10
2019-02-11T14:55:15.525Z,2.77
2019-02-11T14:57:45.390Z,2.50
2019-02-11T15:00:18.356Z,5.17
2019-02-11T15:02:47.741Z,4.83
2019-02-11T15:05:18.904Z,4.60
2019-02-11T15:07:47.874Z,4.17
2019-02-11T15:10:16.857Z,4.10
2019-02-11T15:12:45.686Z,5.00
2019-02-11T15:15:14.889Z,2.33
2019-02-11T15:17:43.738Z,3.93
2019-02-11T15:20:13.565Z,5.00
2019-02-11T15:22:42.507Z,2.12
2019-02-11T15:25:14.521Z,3.00
2019-02-11T15:27:43.359Z,3.30
2019-02-11T15:30:14.554Z,1.80
2019-02-11T15:32:44.196Z,2.57
2019-02-11T15:35:13.211Z,6.47
2019-02-11T15:37:42.088Z,4.10
2019-02-11T15:40:13.189Z,4.83
2019-02-11T15:42:44.000Z,4.80
2019-02-11T15:45:14.300Z,4.80
2019-02-11T15:47:43.206Z,3.67
2019-02-11T15:50:12.866Z,2.52
2019-02-11T15:52:41.746Z,5.90
2019-02-11T15:55:12.883Z,4.00
2019-02-11T15:57:41.712Z,6.20
2019-02-11T16:00:13.241Z,7.25
2019-02-11T16:02:42.096Z,5.93
2019-02-11T16:05:15.880Z,4.20
2019-02-11T16:07:41.750Z,2.30
2019-02-11T16:10:12.692Z,2.40
2019-02-11T16:12:43.572Z,5.50
2019-02-11T16:15:12.865Z,3.03
2019-02-11T16:17:42.876Z,3.80
2019-02-11T16:20:14.409Z,3.63
2019-02-11T16:22:43.198Z,3.90
2019-02-11T16:25:12.550Z,5.33
2019-02-11T16:27:41.393Z,5.30
2019-02-11T16:30:14.841Z,2.53
2019-02-11T16:32:43.766Z,3.33
2019-02-11T16:35:13.296Z,5.70
2019-02-11T16:37:42.138Z,3.90
2019-02-11T16:40:13.954Z,4.67
2019-02-11T16:42:42.897Z,5.77
2019-02-11T16:45:11.934Z,11.20
2019-02-11T16:47:40.854Z,4.37
2019-02-11T16:50:10.247Z,16.63
2019-02-11T16:52:39.410Z,57.73
2019-02-11T16:55:14.323Z,84.45
2019-02-11T16:57:43.077Z,19.00
2019-02-11T17:00:15.950Z,32.60
2019-02-11T17:02:44.922Z,30.97
2019-02-11T17:05:14.117Z,9.05
2019-02-11T17:07:42.926Z,8.47
2019-02-11T17:10:12.393Z,19.05
2019-02-11T17:12:41.361Z,7.80
2019-02-11T17:15:15.144Z,5.90
2019-02-11T17:17:44.048Z,7.40
2019-02-11T17:20:13.698Z,9.97
2019-02-11T17:22:42.589Z,10.23
2019-02-11T17:25:11.721Z,12.80
2019-02-11T17:27:40.679Z,12.87
2019-02-11T17:30:12.388Z,7.63
2019-02-11T17:32:41.489Z,6.87
2019-02-11T17:35:10.487Z,9.27
2019-02-11T17:37:39.329Z,21.03
2019-02-11T17:40:09.350Z,25.30
2019-02-11T17:42:38.270Z,17.80
2019-02-11T17:45:10.991Z,7.53
2019-02-11T17:47:40.147Z,6.50
2019-02-11T17:50:10.040Z,6.30
2019-02-11T17:52:39.301Z,3.87
2019-02-11T17:55:10.901Z,5.47
2019-02-11T17:57:41.384Z,8.23
2019-02-11T18:00:16.262Z,7.50
2019-02-11T18:02:45.505Z,4.87
2019-02-11T18:05:14.368Z,5.77
2019-02-11T18:07:43.174Z,6.23
2019-02-11T18:10:12.092Z,8.00
2019-02-11T18:12:40.883Z,8.20
2019-02-11T18:15:10.462Z,5.70
2019-02-11T18:17:39.322Z,7.47
2019-02-11T18:20:08.405Z,9.53
2019-02-11T18:22:37.220Z,7.40
2019-02-11T18:25:06.490Z,4.05
2019-02-11T18:27:35.628Z,5.30
2019-02-11T18:30:06.877Z,7.80
2019-02-11T18:32:35.648Z,6.93
2019-02-11T18:35:06.010Z,8.47
2019-02-11T18:37:35.078Z,28.93
2019-02-11T18:40:06.378Z,5.83
2019-02-11T18:42:35.938Z,13.93
2019-02-11T18:45:05.982Z,10.00
2019-02-11T18:47:34.861Z,9.35
2019-02-11T18:50:08.049Z,10.97
2019-02-11T18:52:37.477Z,7.27
2019-02-11T18:55:12.486Z,11.20
2019-02-11T18:57:44.875Z,8.43
2019-02-11T19:00:15.753Z,7.13
2019-02-11T19:02:45.239Z,7.20
2019-02-11T19:05:15.269Z,10.77
2019-02-11T19:07:44.160Z,10.13
2019-02-11T19:10:13.323Z,5.87
2019-02-11T19:12:42.142Z,6.97
2019-02-11T19:15:12.178Z,7.23
2019-02-11T19:17:41.203Z,5.30
2019-02-11T19:20:11.099Z,7.10
2019-02-11T19:22:39.853Z,11.57
2019-02-11T19:25:09.370Z,7.30
2019-02-11T19:27:38.290Z,12.83
2019-02-11T19:30:10.431Z,42.80
2019-02-11T19:32:39.164Z,9.37
2019-02-11T19:35:08.233Z,10.43
2019-02-11T19:37:36.944Z,8.30
2019-02-11T19:40:07.030Z,7.73
2019-02-11T19:42:36.914Z,9.73
2019-02-11T19:45:05.941Z,7.75
2019-02-11T19:47:36.751Z,13.17
2019-02-11T19:50:07.988Z,10.73
2019-02-11T19:52:36.957Z,9.60
2019-02-11T19:55:10.712Z,15.90
2019-02-11T19:57:39.890Z,10.27
2019-02-11T20:00:19.722Z,12.37
2019-02-11T20:02:48.801Z,11.17
2019-02-11T20:05:18.443Z,7.60
2019-02-11T20:07:47.361Z,13.43
2019-02-11T20:10:16.888Z,7.70
2019-02-11T20:12:45.640Z,6.83
2019-02-11T20:15:19.261Z,14.57
2019-02-11T20:17:48.281Z,11.77
2019-02-11T20:20:19.330Z,11.27
2019-02-11T20:22:48.280Z,13.57
2019-02-11T20:25:18.330Z,17.10
2019-02-11T20:27:47.346Z,11.63
2019-02-11T20:30:18.334Z,14.20
2019-02-11T20:32:47.431Z,14.68
2019-02-11T20:35:16.853Z,30.93
2019-02-11T20:37:45.940Z,15.78
2019-02-11T20:40:19.640Z,13.90
2019-02-11T20:42:48.772Z,11.90
2019-02-11T20:45:20.237Z,11.93
2019-02-11T20:47:49.072Z,17.57
2019-02-11T20:50:17.925Z,13.33
2019-02-11T20:52:46.679Z,13.07
2019-02-11T20:55:15.652Z,9.97
2019-02-11T20:57:44.437Z,9.77
2019-02-11T21:00:16.354Z,12.90
2019-02-11T21:02:45.191Z,17.63
2019-02-11T21:05:14.247Z,12.80
2019-02-11T21:07:43.159Z,7.73
2019-02-11T21:10:14.113Z,9.55
2019-02-11T21:12:42.944Z,9.97
2019-02-11T21:15:13.024Z,11.00
2019-02-11T21:17:41.801Z,8.43
2019-02-11T21:20:17.574Z,9.23
2019-02-11T21:22:45.004Z,10.87
2019-02-11T21:25:14.817Z,10.47
2019-02-11T21:27:43.617Z,8.90
2019-02-11T21:30:12.612Z,10.57
2019-02-11T21:32:41.689Z,11.27
2019-02-11T21:35:11.541Z,13.30
2019-02-11T21:37:40.684Z,7.03
2019-02-11T21:40:09.724Z,9.10
2019-02-11T21:42:39.101Z,9.40
2019-02-11T21:45:09.228Z,13.10
2019-02-11T21:47:38.280Z,7.47
2019-02-11T21:50:09.062Z,8.23
2019-02-11T21:52:43.114Z,13.72
2019-02-11T21:55:19.279Z,10.87
2019-02-11T21:57:50.508Z,10.45
2019-02-11T22:00:21.728Z,8.83
2019-02-11T22:02:52.397Z,10.18
2019-02-11T22:05:28.082Z,7.70
2019-02-11T22:07:58.971Z,7.93
2019-02-11T22:10:30.067Z,8.38
2019-02-11T22:12:59.213Z,12.13
2019-02-11T22:15:27.978Z,15.50
2019-02-11T22:17:56.794Z,14.90
2019-02-11T22:20:25.553Z,7.83
2019-02-11T22:22:54.681Z,8.60
2019-02-11T22:25:23.898Z,10.45
2019-02-11T22:27:52.831Z,10.50
2019-02-11T22:30:21.789Z,14.43
2019-02-11T22:32:50.614Z,12.40
2019-02-11T22:35:19.376Z,12.23
2019-02-11T22:37:48.814Z,13.73
2019-02-11T22:40:18.241Z,11.70
2019-02-11T22:42:47.068Z,9.20
2019-02-11T22:45:19.510Z,13.73
2019-02-11T22:47:48.646Z,6.65
2019-02-11T22:50:18.015Z,11.97
2019-02-11T22:52:46.986Z,9.47
2019-02-11T22:55:18.453Z,9.67
2019-02-11T22:57:47.780Z,12.37
2019-02-11T23:00:54.002Z,9.67
2019-02-11T23:03:22.956Z,10.13
2019-02-11T23:05:52.372Z,8.37
2019-02-11T23:08:24.349Z,10.30
2019-02-11T23:10:53.379Z,9.87
2019-02-11T23:13:22.345Z,8.70
2019-02-11T23:15:51.138Z,16.95
2019-02-11T23:18:21.569Z,10.50
2019-02-11T23:20:52.343Z,12.88
2019-02-11T23:23:21.542Z,13.95
2019-02-11T23:25:52.023Z,10.07
2019-02-11T23:28:22.677Z,10.20
2019-02-11T23:30:51.433Z,9.30
2019-02-11T23:33:20.183Z,10.53
2019-02-11T23:35:48.938Z,10.73
2019-02-11T23:38:17.689Z,16.00
2019-02-11T23:40:46.448Z,17.80
2019-02-11T23:43:15.366Z,13.50
2019-02-11T23:45:44.273Z,12.33
2019-02-11T23:48:13.032Z,21.60
2019-02-11T23:50:42.182Z,10.17
2019-02-11T23:53:11.382Z,12.05
2019-02-11T23:55:40.147Z,9.60
2019-02-11T23:58:08.923Z,14.57
